Impacts METAR Board INFO
IDs:

KCLE - Cleveland/Hopkins In, OH, US

Updated at: 0953 UTC 17 Dec 2017
Potential Impact None Slight Moderate High
Time16/21Z 16/22Z 16/23Z 17/00Z 17/01Z 17/02Z 17/03Z 17/04Z 17/05Z 17/06Z 17/07Z 17/08Z 17/09Z
VIS10 10 10 10 6 5 3 3 7 7 5 6 6
CIG100 -- -- -- -- -- -- -- -- -- -- -- --
CoverBKNFEWCLRCLRCLRCLRCLRCLRCLRCLRSCTFEWFEW
FltCatVFRVFRVFRVFRVFRMVFRMVFRMVFRVFRVFRMVFRVFRVFR
WX--------BRBRBRBR----BRBRBR
WDir230280030506030408013007080
WSpd8 4 0 5 3 3 3 3 6 5 0 4 3
WGst-- -- -- -- -- -- -- -- -- -- -- -- --
Raw hourly METARs
KCLE 162051Z 23008KT 10SM FEW035 BKN100 BKN250 04/M02 A3003 RMK AO2 SLP176 T00441017 53009 $
KCLE 162151Z 28004KT 10SM FEW035 04/M02 A3006 RMK AO2 SLP186 T00391022 $
KCLE 162251Z 00000KT 10SM CLR 03/M02 A3010 RMK AO2 SLP199 T00281022 $
KCLE 162351Z 03005KT 10SM CLR 02/M02 A3011 RMK AO2 SLP204 4/003 T00171017 10050 20011 51026 $
KCLE 170051Z 05003KT 6SM BR CLR 00/M01 A3013 RMK AO2 SLP210 T00001011 $
KCLE 170151Z 06003KT 5SM BR CLR M01/M02 A3013 RMK AO2 SLP211 T10061017 $
KCLE 170251Z 03003KT 3SM BR CLR M01/M02 A3015 RMK AO2 SLP218 I1001 I3001 T10111022 53013 $
KCLE 170351Z 04003KT 3SM BR CLR M03/M03 A3016 RMK AO2 SLP221 I1000 T10281028 $
KCLE 170451Z 08006KT 7SM CLR 00/M02 A3016 RMK AO2 SLP222 I1000 T00001022 400501028 $
KCLE 170551Z 13005KT 7SM CLR M02/M03 A3017 RMK AO2 SLP223 4/002 I6001 T10171033 10017 21028 51005 $
KCLE 170651Z 00000KT 5SM BR SCT250 M03/M04 A3017 RMK AO2 SLP225 I1000 T10331044 $
KCLE 170751Z 07004KT 6SM BR FEW250 M02/M04 A3017 RMK AO2 SLP224 I1000 T10221039 $
KCLE 170851Z 08003KT 6SM BR FEW250 M03/M04 A3018 RMK AO2 SLP227 I1000 I3000 T10331044 53004 $